Kansai — JD3272 — position and weather

sailwx.info

Track history (hours):
 
Tides and Currents Weather Stations Pressure Air Temp Water Temp Dewpoint Dewpoint Depression Visibility Wind Speed Wind Dir Waves Ship Positions

Kansai

Last reported at 2014-Oct-23 05:12 UTC. Time now 2014-Oct-25 12:42 UTC.
Position N 33°60' E 135°00'.

Length 73 m; draft 4.2 m.

Type: Cargo ship. MMSI: 431003134.

Date/timePositionNaut miles runAvg speedWind from/ knotsBaromVisibWave heightAir tempDewpointWater temp
2014-Oct-23 05:12N 33°60' E 135°00'1011.4
2014-Oct-23 04:17N 34°10' E 134°59'911.8
2014-Oct-23 03:31N 34°19' E 134°59'1111.3
2014-Oct-23 02:33N 34°30' E 135°02'9 7.1
2014-Oct-23 01:17N 34°37' E 134°55'7 0.4
2014-Oct-22 07:33N 34°41' E 134°49'3 0.3
2014-Oct-21 22:29N 34°39' E 134°51'1213.5
2014-Oct-21 21:33N 34°36' E 135°05'5 4.7
2014-Oct-21 20:33N 34°38' E 135°11'0 0.1
2014-Oct-21 19:33N 34°38' E 135°11'0 0.0
2014-Oct-21 18:33N 34°38' E 135°11'0 0.0
2014-Oct-21 17:33N 34°38' E 135°11'0 0.0
2014-Oct-21 16:33N 34°38' E 135°11'0 0.0
2014-Oct-21 15:33N 34°38' E 135°11'0 0.0
2014-Oct-21 14:33N 34°38' E 135°11'0 0.3
2014-Oct-21 13:33N 34°38' E 135°10'1211.5
2014-Oct-21 12:32N 34°28' E 135°04'235 8.6
2014-Oct-20 09:16N 35°11' E 139°46'811.8
2014-Oct-20 08:34N 35°19' E 139°43'1010.2
2014-Oct-20 07:33N 35°28' E 139°49'14 1.7
2014-Oct-19 23:14N 35°41' E 139°58'0 0.0
2014-Oct-19 22:32N 35°41' E 139°58'0 0.0
2014-Oct-19 21:29N 35°41' E 139°58'0 0.0
2014-Oct-19 20:14N 35°41' E 139°58'0 0.0
2014-Oct-19 19:33N 35°41' E 139°58'0 0.0
2014-Oct-19 18:33N 35°41' E 139°58'0 0.0
2014-Oct-19 17:34N 35°41' E 139°58'0 0.0
2014-Oct-19 16:33N 35°41' E 139°58'0 0.0
2014-Oct-19 15:32N 35°41' E 139°58'0 0.0
2014-Oct-19 14:33N 35°41' E 139°58'1 0.6
2014-Oct-19 13:32N 35°40' E 139°57'1010.2
2014-Oct-19 12:33N 35°31' E 139°53'1110.9
2014-Oct-19 11:34N 35°22' E 139°45'11 9.5
2014-Oct-19 10:24N 35°11' E 139°47'246 8.8
2014-Oct-18 06:26N 33°59' E 135°01'1210.5
2014-Oct-18 05:18N 34°11' E 134°59'1210.7
2014-Oct-18 04:13N 34°22' E 134°60'710.7
2014-Oct-18 03:32N 34°29' E 135°02'9 7.7
2014-Oct-18 02:25N 34°37' E 134°56'7 0.5
2014-Oct-17 12:24N 34°41' E 134°49'  
2014-Oct-14 02:31N 34°04' E 134°59'1110.5
2014-Oct-14 01:30N 34°15' E 134°58'9 9.5
2014-Oct-14 00:33N 34°24' E 135°02'1110.9
2014-Oct-13 23:33N 34°31' E 135°12'1111.0
2014-Oct-13 22:33N 34°39' E 135°20'3 2.9
2014-Oct-13 21:33N 34°41' E 135°23'0 0.0
2014-Oct-13 20:33N 34°41' E 135°23'0 0.0
2014-Oct-13 19:33N 34°41' E 135°23'0 0.1
2014-Oct-13 18:33N 34°41' E 135°23'0 0.1
2014-Oct-13 17:33N 34°41' E 135°23'0 0.1
2014-Oct-13 16:33N 34°41' E 135°23'0 0.0
2014-Oct-13 15:33N 34°41' E 135°23'0 0.0
2014-Oct-13 14:33N 34°41' E 135°23'0 0.0
2014-Oct-13 13:33N 34°41' E 135°23'0 0.0
2014-Oct-13 12:33N 34°41' E 135°23'0 0.0
2014-Oct-13 11:33N 34°41' E 135°23'0 0.0
2014-Oct-13 10:33N 34°41' E 135°23'0 0.0
2014-Oct-13 09:33N 34°41' E 135°23'0 0.0
2014-Oct-13 08:33N 34°41' E 135°23'0 0.0
2014-Oct-13 07:33N 34°41' E 135°23'0 0.0
2014-Oct-13 06:33N 34°41' E 135°23'0 0.0
2014-Oct-13 05:33N 34°41' E 135°23'  
Track history (hours):
 
Tides and Currents Weather Stations Pressure Air Temp Water Temp Dewpoint Dewpoint Depression Visibility Wind Speed Wind Dir Waves Ship Positions

Kansai

Last reported at 2014-Oct-23 05:12 UTC. Time now 2014-Oct-25 12:42 UTC.
Position N 33°60' E 135°00'.

Length 73 m; draft 4.2 m.

Type: Cargo ship. MMSI: 431003134.

Date/timePositionNaut miles runAvg speedWind from/ knotsBaromVisibWave heightAir tempDewpointWater temp
2014-Oct-23 05:12N 33°60' E 135°00'1011.4
2014-Oct-23 04:17N 34°10' E 134°59'911.8
2014-Oct-23 03:31N 34°19' E 134°59'1111.3
2014-Oct-23 02:33N 34°30' E 135°02'9 7.1
2014-Oct-23 01:17N 34°37' E 134°55'7 0.4
2014-Oct-22 07:33N 34°41' E 134°49'3 0.3
2014-Oct-21 22:29N 34°39' E 134°51'1213.5
2014-Oct-21 21:33N 34°36' E 135°05'5 4.7
2014-Oct-21 20:33N 34°38' E 135°11'0 0.1
2014-Oct-21 19:33N 34°38' E 135°11'0 0.0
2014-Oct-21 18:33N 34°38' E 135°11'0 0.0
2014-Oct-21 17:33N 34°38' E 135°11'0 0.0
2014-Oct-21 16:33N 34°38' E 135°11'0 0.0
2014-Oct-21 15:33N 34°38' E 135°11'0 0.0
2014-Oct-21 14:33N 34°38' E 135°11'0 0.3
2014-Oct-21 13:33N 34°38' E 135°10'1211.5
2014-Oct-21 12:32N 34°28' E 135°04'235 8.6
2014-Oct-20 09:16N 35°11' E 139°46'811.8
2014-Oct-20 08:34N 35°19' E 139°43'1010.2
2014-Oct-20 07:33N 35°28' E 139°49'14 1.7
2014-Oct-19 23:14N 35°41' E 139°58'0 0.0
2014-Oct-19 22:32N 35°41' E 139°58'0 0.0
2014-Oct-19 21:29N 35°41' E 139°58'0 0.0
2014-Oct-19 20:14N 35°41' E 139°58'0 0.0
2014-Oct-19 19:33N 35°41' E 139°58'0 0.0
2014-Oct-19 18:33N 35°41' E 139°58'0 0.0
2014-Oct-19 17:34N 35°41' E 139°58'0 0.0
2014-Oct-19 16:33N 35°41' E 139°58'0 0.0
2014-Oct-19 15:32N 35°41' E 139°58'0 0.0
2014-Oct-19 14:33N 35°41' E 139°58'1 0.6
2014-Oct-19 13:32N 35°40' E 139°57'1010.2
2014-Oct-19 12:33N 35°31' E 139°53'1110.9
2014-Oct-19 11:34N 35°22' E 139°45'11 9.5
2014-Oct-19 10:24N 35°11' E 139°47'246 8.8
2014-Oct-18 06:26N 33°59' E 135°01'1210.5
2014-Oct-18 05:18N 34°11' E 134°59'1210.7
2014-Oct-18 04:13N 34°22' E 134°60'710.7
2014-Oct-18 03:32N 34°29' E 135°02'9 7.7
2014-Oct-18 02:25N 34°37' E 134°56'7 0.5
2014-Oct-17 12:24N 34°41' E 134°49'  
2014-Oct-14 02:31N 34°04' E 134°59'1110.5
2014-Oct-14 01:30N 34°15' E 134°58'9 9.5
2014-Oct-14 00:33N 34°24' E 135°02'1110.9
2014-Oct-13 23:33N 34°31' E 135°12'1111.0
2014-Oct-13 22:33N 34°39' E 135°20'3 2.9
2014-Oct-13 21:33N 34°41' E 135°23'0 0.0
2014-Oct-13 20:33N 34°41' E 135°23'0 0.0
2014-Oct-13 19:33N 34°41' E 135°23'0 0.1
2014-Oct-13 18:33N 34°41' E 135°23'0 0.1
2014-Oct-13 17:33N 34°41' E 135°23'0 0.1
2014-Oct-13 16:33N 34°41' E 135°23'0 0.0
2014-Oct-13 15:33N 34°41' E 135°23'0 0.0
2014-Oct-13 14:33N 34°41' E 135°23'0 0.0
2014-Oct-13 13:33N 34°41' E 135°23'0 0.0
2014-Oct-13 12:33N 34°41' E 135°23'0 0.0
2014-Oct-13 11:33N 34°41' E 135°23'0 0.0
2014-Oct-13 10:33N 34°41' E 135°23'0 0.0
2014-Oct-13 09:33N 34°41' E 135°23'0 0.0
2014-Oct-13 08:33N 34°41' E 135°23'0 0.0
2014-Oct-13 07:33N 34°41' E 135°23'0 0.0
2014-Oct-13 06:33N 34°41' E 135°23'0 0.0
2014-Oct-13 05:33N 34°41' E 135°23'  

Dump ship's entire track history